Time;durP1;ratioP1;P1;durP2;ratioP2;P2;SDS_P1;SDS_P2;PMS_P1;PMS_P2;Temp;Humidity;BMP_temperature;BMP_pressure;BME280_temperature;BME280_humidity;BME280_pressure;Samples;Min_cycle;Max_cycle;Signal;HPM_P1;HPM_P2
2022/03/14 00:01:28;;;;;;;18.65;9.48;;;;;;;;;;5060280;28;20048;-92
2022/03/14 00:03:55;;;;;;;16.23;10.45;;;;;;;;;;5060168;28;20098;-90
2022/03/14 00:06:22;;;;;;;15.77;11.05;;;;;;;;;;5063308;28;20051;-93
2022/03/14 00:08:48;;;;;;;13.80;9.93;;;;;;;;;;5079390;28;20088;-92
2022/03/14 00:11:16;;;;;;;16.08;10.20;;;;;;;;;;5062872;28;20045;-95
2022/03/14 00:13:46;;;;;;;17.88;10.60;;;;;;;;;;5062795;28;20125;-93
2022/03/14 00:16:19;;;;;;;13.55;10.63;;;;;;;;;;5079122;28;20068;-91
2022/03/14 00:18:48;;;;;;;21.48;11.02;;;;;;;;;;5063293;28;20047;-91
2022/03/14 00:21:14;;;;;;;16.08;11.27;;;;;;;;;;5062751;28;20072;-95
2022/03/14 00:23:40;;;;;;;16.15;11.48;;;;;;;;;;5062861;28;20055;-92
2022/03/14 00:26:07;;;;;;;18.15;10.77;;;;;;;;;;5063991;28;20386;-94
2022/03/14 00:28:33;;;;;;;19.73;11.40;;;;;;;;;;5063892;28;20152;-94
2022/03/14 00:30:59;;;;;;;17.45;11.23;;;;;;;;;;5060900;28;20120;-93
2022/03/14 00:33:26;;;;;;;15.80;10.38;;;;;;;;;;5061019;28;20408;-92
2022/03/14 00:35:52;;;;;;;20.63;11.55;;;;;;;;;;5060664;28;20049;-92
2022/03/14 00:38:27;;;;;;;17.83;12.02;;;;;;;;;;5079242;28;20056;-94
2022/03/14 00:40:54;;;;;;;15.63;10.98;;;;;;;;;;5059711;28;20040;-95
2022/03/14 00:43:20;;;;;;;16.48;11.50;;;;;;;;;;5060354;28;20056;-95
2022/03/14 00:45:46;;;;;;;17.77;12.48;;;;;;;;;;5075272;28;20052;-94
2022/03/14 00:48:12;;;;;;;18.15;11.40;;;;;;;;;;5059306;28;20047;-91
2022/03/14 00:50:39;;;;;;;16.58;11.30;;;;;;;;;;5058281;28;20048;-96
2022/03/14 00:53:05;;;;;;;18.52;11.65;;;;;;;;;;5074900;28;20080;-90
2022/03/14 00:55:31;;;;;;;19.90;11.77;;;;;;;;;;5058743;28;20053;-90
2022/03/14 00:57:57;;;;;;;17.70;11.10;;;;;;;;;;5075626;28;20043;-90
2022/03/14 01:00:23;;;;;;;16.90;11.57;;;;;;;;;;5057368;28;20044;-92
2022/03/14 01:02:50;;;;;;;18.80;11.95;;;;;;;;;;5058749;28;20489;-93
2022/03/14 01:05:17;;;;;;;19.58;11.77;;;;;;;;;;5058675;28;20056;-92
2022/03/14 01:07:43;;;;;;;19.15;12.48;;;;;;;;;;5058118;28;20044;-95
2022/03/14 01:10:09;;;;;;;17.45;12.38;;;;;;;;;;5077042;28;20052;-92
2022/03/14 01:12:35;;;;;;;16.77;11.57;;;;;;;;;;5062630;28;20135;-88
2022/03/14 01:15:01;;;;;;;16.20;11.02;;;;;;;;;;5062070;28;20037;-93
2022/03/14 01:17:27;;;;;;;19.88;12.35;;;;;;;;;;5061752;28;20040;-95
2022/03/14 01:19:54;;;;;;;16.55;10.70;;;;;;;;;;5062202;28;20044;-94
2022/03/14 01:22:20;;;;;;;17.33;11.73;;;;;;;;;;5078197;28;20120;-93
2022/03/14 01:24:46;;;;;;;20.10;12.27;;;;;;;;;;5061838;28;20053;-94
2022/03/14 01:27:12;;;;;;;18.40;12.57;;;;;;;;;;5061988;28;20052;-94
2022/03/14 01:29:38;;;;;;;17.27;12.13;;;;;;;;;;5079259;28;20052;-96
2022/03/14 01:32:05;;;;;;;16.60;11.15;;;;;;;;;;5057845;28;20190;-95
2022/03/14 01:34:31;;;;;;;18.60;11.93;;;;;;;;;;5041690;28;20056;-92
2022/03/14 01:36:58;;;;;;;17.75;11.77;;;;;;;;;;5059490;28;20462;-95
2022/03/14 01:39:24;;;;;;;16.85;11.32;;;;;;;;;;5041175;28;20070;-93
2022/03/14 01:41:50;;;;;;;18.42;11.68;;;;;;;;;;5058756;28;20478;-94
2022/03/14 01:44:17;;;;;;;17.73;11.57;;;;;;;;;;5057531;28;20047;-94
2022/03/14 01:46:44;;;;;;;16.45;12.18;;;;;;;;;;5041228;28;20041;-93
2022/03/14 01:49:11;;;;;;;17.73;11.60;;;;;;;;;;5041293;28;20052;-93
2022/03/14 01:51:41;;;;;;;19.05;11.70;;;;;;;;;;5041416;28;20086;-93
2022/03/14 01:54:07;;;;;;;16.58;11.38;;;;;;;;;;5040929;28;20091;-94
2022/03/14 01:56:35;;;;;;;16.77;12.05;;;;;;;;;;5046142;28;20048;-88
2022/03/14 01:59:01;;;;;;;21.98;11.75;;;;;;;;;;5060603;28;20055;-91
2022/03/14 02:01:27;;;;;;;17.08;12.77;;;;;;;;;;5041024;28;20048;-95
2022/03/14 02:03:53;;;;;;;15.32;10.70;;;;;;;;;;5058044;28;20049;-94
2022/03/14 02:06:19;;;;;;;17.55;12.00;;;;;;;;;;5063145;28;20053;-92
2022/03/14 02:08:45;;;;;;;18.35;12.68;;;;;;;;;;5062002;28;20037;-92
2022/03/14 02:11:12;;;;;;;18.00;12.13;;;;;;;;;;5057848;28;20136;-94
2022/03/14 02:13:38;;;;;;;19.15;11.73;;;;;;;;;;5057889;28;20049;-91
2022/03/14 02:16:04;;;;;;;17.42;12.60;;;;;;;;;;5057910;28;20490;-93
2022/03/14 02:18:30;;;;;;;17.98;12.40;;;;;;;;;;5040447;28;20041;-94
2022/03/14 02:20:56;;;;;;;19.25;12.25;;;;;;;;;;5039987;28;20041;-94
2022/03/14 02:23:22;;;;;;;14.60;10.77;;;;;;;;;;5056755;28;20048;-96
2022/03/14 02:25:53;;;;;;;19.88;12.05;;;;;;;;;;5058617;28;20501;-95
2022/03/14 02:28:22;;;;;;;17.20;11.77;;;;;;;;;;5057443;28;20052;-93
2022/03/14 02:30:52;;;;;;;15.57;11.10;;;;;;;;;;5040959;28;20055;-90
2022/03/14 02:33:18;;;;;;;14.77;10.32;;;;;;;;;;5060981;28;20106;-94
2022/03/14 02:35:44;;;;;;;18.52;11.90;;;;;;;;;;5060450;28;20045;-88
2022/03/14 02:38:19;;;;;;;18.33;11.80;;;;;;;;;;5060679;28;20048;-96
2022/03/14 02:40:46;;;;;;;13.43;10.30;;;;;;;;;;5060497;28;20477;-93
2022/03/14 02:43:15;;;;;;;15.95;11.05;;;;;;;;;;5060393;28;20447;-94
2022/03/14 02:45:41;;;;;;;18.20;11.68;;;;;;;;;;5058992;28;20518;-94
2022/03/14 02:48:07;;;;;;;18.15;11.02;;;;;;;;;;5060144;28;20037;-94
2022/03/14 02:50:34;;;;;;;16.42;11.70;;;;;;;;;;5060202;28;20133;-94
2022/03/14 02:53:00;;;;;;;17.38;11.85;;;;;;;;;;5060738;28;20045;-94
2022/03/14 02:55:27;;;;;;;17.83;11.77;;;;;;;;;;5060533;28;20037;-93
2022/03/14 02:57:53;;;;;;;22.10;12.27;;;;;;;;;;5076156;28;20124;-87
2022/03/14 03:00:19;;;;;;;18.08;10.98;;;;;;;;;;5059078;28;20413;-93
2022/03/14 03:02:45;;;;;;;17.85;11.93;;;;;;;;;;5059977;28;20041;-94
2022/03/14 03:05:11;;;;;;;15.20;11.68;;;;;;;;;;5059961;28;20044;-94
2022/03/14 03:07:39;;;;;;;15.77;10.93;;;;;;;;;;5060233;28;20044;-94
2022/03/14 03:10:06;;;;;;;15.70;10.88;;;;;;;;;;5059520;28;20127;-88
2022/03/14 03:12:32;;;;;;;16.75;10.50;;;;;;;;;;5076321;28;20072;-88
2022/03/14 03:14:59;;;;;;;19.30;10.93;;;;;;;;;;5058365;28;20497;-90
2022/03/14 03:17:25;;;;;;;14.95;10.05;;;;;;;;;;5076507;28;20050;-87
2022/03/14 03:19:51;;;;;;;15.10;10.23;;;;;;;;;;5058867;28;20063;-90
2022/03/14 03:22:18;;;;;;;12.48;9.30;;;;;;;;;;5058282;28;20119;-91
2022/03/14 03:24:44;;;;;;;14.40;10.90;;;;;;;;;;5059142;28;20086;-91
2022/03/14 03:27:10;;;;;;;14.80;10.05;;;;;;;;;;5059528;28;20420;-91
2022/03/14 03:29:36;;;;;;;17.92;10.65;;;;;;;;;;5058966;28;20064;-92
2022/03/14 03:32:03;;;;;;;13.30;9.70;;;;;;;;;;5058095;28;20064;-92
2022/03/14 03:34:29;;;;;;;15.88;10.48;;;;;;;;;;5042303;28;20465;-94
2022/03/14 03:36:55;;;;;;;14.45;9.52;;;;;;;;;;5058628;28;20101;-91
2022/03/14 03:39:21;;;;;;;14.98;10.38;;;;;;;;;;5042670;28;20056;-91
2022/03/14 03:41:47;;;;;;;14.95;9.73;;;;;;;;;;5075188;28;20041;-91
2022/03/14 03:44:13;;;;;;;16.45;10.02;;;;;;;;;;5058913;28;20068;-93
2022/03/14 03:46:39;;;;;;;12.27;9.50;;;;;;;;;;5076209;28;20050;-91
2022/03/14 03:49:05;;;;;;;14.02;10.00;;;;;;;;;;5041549;28;20102;-91
2022/03/14 03:51:31;;;;;;;13.73;9.57;;;;;;;;;;5059193;28;20059;-93
2022/03/14 03:53:57;;;;;;;10.50;8.07;;;;;;;;;;5041264;28;20044;-90
2022/03/14 03:56:24;;;;;;;13.02;9.27;;;;;;;;;;5057982;28;20087;-88
2022/03/14 03:58:50;;;;;;;15.27;10.02;;;;;;;;;;5041576;28;20056;-92
2022/03/14 04:01:22;;;;;;;12.13;8.60;;;;;;;;;;5058330;28;20041;-94
2022/03/14 04:03:52;;;;;;;11.30;7.80;;;;;;;;;;5041561;28;20106;-88
2022/03/14 04:06:23;;;;;;;12.23;8.55;;;;;;;;;;5058753;28;20055;-93
2022/03/14 04:08:50;;;;;;;15.20;9.18;;;;;;;;;;5076159;28;20055;-96
2022/03/14 04:11:16;;;;;;;11.73;8.50;;;;;;;;;;5042709;28;20397;-92
2022/03/14 04:13:42;;;;;;;11.70;8.50;;;;;;;;;;5076320;28;20059;-92
2022/03/14 04:16:09;;;;;;;12.60;8.95;;;;;;;;;;5058128;28;20162;-91
2022/03/14 04:18:36;;;;;;;11.85;8.43;;;;;;;;;;5058280;28;20478;-93
2022/03/14 04:21:02;;;;;;;11.68;8.23;;;;;;;;;;5058799;28;20121;-89
2022/03/14 04:23:31;;;;;;;9.73;7.85;;;;;;;;;;5058956;28;20043;-91
2022/03/14 04:25:57;;;;;;;11.75;7.88;;;;;;;;;;5042489;28;20050;-90
2022/03/14 04:28:24;;;;;;;9.30;7.25;;;;;;;;;;5059018;28;20032;-90
2022/03/14 04:30:50;;;;;;;9.48;7.00;;;;;;;;;;5058329;28;20557;-92
2022/03/14 04:33:17;;;;;;;13.00;7.55;;;;;;;;;;5041747;28;20045;-91
2022/03/14 04:35:43;;;;;;;14.10;8.20;;;;;;;;;;5041306;28;20048;-90
2022/03/14 04:38:09;;;;;;;11.13;7.90;;;;;;;;;;5041641;28;20044;-93
2022/03/14 04:40:35;;;;;;;9.45;7.50;;;;;;;;;;5042178;28;20044;-94
2022/03/14 04:43:08;;;;;;;9.57;7.85;;;;;;;;;;5057403;28;20500;-92
2022/03/14 04:45:36;;;;;;;11.05;6.93;;;;;;;;;;5044931;28;20045;-95
2022/03/14 04:48:04;;;;;;;11.07;7.45;;;;;;;;;;5079542;28;20044;-95
2022/03/14 04:50:30;;;;;;;11.25;7.45;;;;;;;;;;5045223;28;20047;-89
2022/03/14 04:52:56;;;;;;;9.13;6.82;;;;;;;;;;5045590;28;20076;-93
2022/03/14 04:55:22;;;;;;;7.95;6.45;;;;;;;;;;5045532;28;20048;-90
2022/03/14 04:57:49;;;;;;;10.40;6.07;;;;;;;;;;5045653;28;20485;-87
2022/03/14 05:00:15;;;;;;;8.77;6.32;;;;;;;;;;5045144;28;20071;-89
2022/03/14 05:02:41;;;;;;;7.43;5.20;;;;;;;;;;5044673;28;20051;-91
2022/03/14 05:05:11;;;;;;;8.88;6.10;;;;;;;;;;5061976;28;20047;-92
2022/03/14 05:07:37;;;;;;;7.47;5.55;;;;;;;;;;5061769;28;20049;-89
2022/03/14 05:10:06;;;;;;;6.82;5.00;;;;;;;;;;5045778;28;20048;-89
2022/03/14 05:12:32;;;;;;;9.77;5.88;;;;;;;;;;5061878;28;20482;-93
2022/03/14 05:14:58;;;;;;;7.32;5.50;;;;;;;;;;5080401;28;20106;-89
2022/03/14 05:17:25;;;;;;;8.73;5.70;;;;;;;;;;5061945;28;20063;-94
2022/03/14 05:19:51;;;;;;;9.00;4.82;;;;;;;;;;5046132;28;20074;-88
2022/03/14 05:22:19;;;;;;;5.85;4.70;;;;;;;;;;5062602;28;20431;-93
2022/03/14 05:24:45;;;;;;;5.45;4.53;;;;;;;;;;5045884;28;20048;-93
2022/03/14 05:27:12;;;;;;;6.68;4.88;;;;;;;;;;5061994;28;20083;-89
2022/03/14 05:29:38;;;;;;;6.03;4.15;;;;;;;;;;5045365;28;20099;-92
2022/03/14 05:32:04;;;;;;;5.75;4.05;;;;;;;;;;5079369;28;20060;-92
2022/03/14 05:34:31;;;;;;;7.95;4.97;;;;;;;;;;5080325;28;20059;-91
2022/03/14 05:36:58;;;;;;;6.03;4.15;;;;;;;;;;5062123;28;20103;-93
2022/03/14 05:39:24;;;;;;;5.75;4.60;;;;;;;;;;5062352;28;20102;-90
2022/03/14 05:41:50;;;;;;;5.50;4.45;;;;;;;;;;5079851;28;20045;-89
2022/03/14 05:44:17;;;;;;;7.72;5.15;;;;;;;;;;5044987;28;20055;-90
2022/03/14 05:46:43;;;;;;;5.90;3.53;;;;;;;;;;5061806;28;20082;-94
2022/03/14 05:49:09;;;;;;;4.72;4.10;;;;;;;;;;5061763;28;20607;-92
2022/03/14 05:51:37;;;;;;;5.63;4.32;;;;;;;;;;5044127;28;20485;-91
2022/03/14 05:54:03;;;;;;;4.93;3.78;;;;;;;;;;5078792;28;20493;-92
2022/03/14 05:56:30;;;;;;;8.90;3.88;;;;;;;;;;5061948;28;20040;-93
2022/03/14 05:58:56;;;;;;;5.05;4.20;;;;;;;;;;5045026;28;20048;-92
2022/03/14 06:01:22;;;;;;;4.80;3.95;;;;;;;;;;5044988;28;20048;-95
2022/03/14 06:03:49;;;;;;;4.97;4.13;;;;;;;;;;5061712;28;20611;-91
2022/03/14 06:06:15;;;;;;;6.40;3.85;;;;;;;;;;5045087;28;20044;-94
2022/03/14 06:08:41;;;;;;;4.43;3.97;;;;;;;;;;5044854;28;20044;-91
2022/03/14 06:11:08;;;;;;;6.03;4.07;;;;;;;;;;5045415;28;20087;-93
2022/03/14 06:13:35;;;;;;;4.32;3.42;;;;;;;;;;5046504;28;20083;-94
2022/03/14 06:16:02;;;;;;;6.50;4.30;;;;;;;;;;5046349;28;20036;-93
2022/03/14 06:18:29;;;;;;;4.90;4.40;;;;;;;;;;5046746;28;20045;-96
2022/03/14 06:20:56;;;;;;;5.22;3.78;;;;;;;;;;5045845;28;20044;-96
2022/03/14 06:23:22;;;;;;;5.78;3.97;;;;;;;;;;5062809;28;20043;-96
2022/03/14 06:25:49;;;;;;;3.83;3.45;;;;;;;;;;5045840;28;20059;-94
2022/03/14 06:28:16;;;;;;;4.80;3.63;;;;;;;;;;5062104;28;20040;-95
2022/03/14 06:30:42;;;;;;;4.45;3.65;;;;;;;;;;5044725;28;20044;-91
2022/03/14 06:33:08;;;;;;;6.18;3.67;;;;;;;;;;5061490;28;20127;-93
2022/03/14 06:35:37;;;;;;;4.65;3.45;;;;;;;;;;5043877;28;20040;-93
2022/03/14 06:38:10;;;;;;;4.28;3.47;;;;;;;;;;5077729;28;20552;-94
2022/03/14 06:40:36;;;;;;;4.97;3.20;;;;;;;;;;5059748;28;20061;-90
2022/03/14 06:43:02;;;;;;;4.43;3.33;;;;;;;;;;5059700;28;20040;-93
2022/03/14 06:45:30;;;;;;;4.65;3.42;;;;;;;;;;5059927;28;20132;-91
2022/03/14 06:47:57;;;;;;;4.30;3.38;;;;;;;;;;5077495;28;20123;-93
2022/03/14 06:50:23;;;;;;;3.35;3.03;;;;;;;;;;5043421;28;20040;-92
2022/03/14 06:52:49;;;;;;;3.13;2.78;;;;;;;;;;5044909;28;20046;-94
2022/03/14 06:55:16;;;;;;;5.47;3.30;;;;;;;;;;5043311;28;20049;-90
2022/03/14 06:57:42;;;;;;;3.83;3.28;;;;;;;;;;5042394;28;20056;-93
2022/03/14 07:00:11;;;;;;;4.05;3.47;;;;;;;;;;5044690;28;20094;-95
2022/03/14 07:02:43;;;;;;;5.53;3.85;;;;;;;;;;5044224;28;20393;-89
2022/03/14 07:05:13;;;;;;;3.85;3.28;;;;;;;;;;5043409;28;20036;-95
2022/03/14 07:07:48;;;;;;;4.38;3.50;;;;;;;;;;5042460;28;20092;-91
2022/03/14 07:10:17;;;;;;;5.78;3.70;;;;;;;;;;5042899;28;20131;-95
2022/03/14 07:12:46;;;;;;;3.65;3.35;;;;;;;;;;5044065;28;20127;-93
2022/03/14 07:15:33;;;;;;;5.63;3.63;;;;;;;;;;5042908;28;20044;-95
2022/03/14 07:17:59;;;;;;;4.60;4.07;;;;;;;;;;5044057;28;20045;-93
2022/03/14 07:20:26;;;;;;;4.20;3.70;;;;;;;;;;5059752;28;20051;-95
2022/03/14 07:23:02;;;;;;;4.20;3.15;;;;;;;;;;5043083;28;20036;-90
2022/03/14 07:25:30;;;;;;;5.05;3.88;;;;;;;;;;5041810;28;20521;-93
2022/03/14 07:28:00;;;;;;;3.53;3.22;;;;;;;;;;5060368;28;20539;-93
2022/03/14 07:30:27;;;;;;;4.03;3.47;;;;;;;;;;5060594;28;20078;-90
2022/03/14 07:32:57;;;;;;;4.75;3.88;;;;;;;;;;5061004;28;20489;-94
2022/03/14 07:35:23;;;;;;;5.53;3.85;;;;;;;;;;5043888;28;20041;-90
2022/03/14 07:37:50;;;;;;;7.32;3.78;;;;;;;;;;5043837;28;20080;-94
2022/03/14 07:40:19;;;;;;;5.50;3.88;;;;;;;;;;5060536;28;20047;-92
2022/03/14 07:42:49;;;;;;;5.57;4.00;;;;;;;;;;5044046;28;20048;-90
2022/03/14 07:45:16;;;;;;;4.70;3.80;;;;;;;;;;5044140;28;20115;-94
2022/03/14 07:47:45;;;;;;;10.13;4.35;;;;;;;;;;5077270;28;20080;-92
2022/03/14 07:50:13;;;;;;;4.25;3.63;;;;;;;;;;5043134;28;20110;-92
2022/03/14 07:52:45;;;;;;;5.70;3.88;;;;;;;;;;5042924;28;20055;-96
2022/03/14 07:55:15;;;;;;;4.97;3.88;;;;;;;;;;5059700;28;20040;-94
2022/03/14 07:57:47;;;;;;;4.75;3.65;;;;;;;;;;5042212;28;20493;-93
2022/03/14 08:00:15;;;;;;;5.38;4.50;;;;;;;;;;5042125;28;20040;-96
2022/03/14 08:02:43;;;;;;;5.78;4.40;;;;;;;;;;5042925;28;20066;-95
2022/03/14 08:05:15;;;;;;;4.43;3.67;;;;;;;;;;5058468;28;20091;-92
2022/03/14 08:07:47;;;;;;;6.35;4.63;;;;;;;;;;5043351;28;20044;-95
2022/03/14 08:10:22;;;;;;;5.38;3.80;;;;;;;;;;5058880;28;20482;-92
2022/03/14 08:12:55;;;;;;;4.45;3.88;;;;;;;;;;5041993;28;20049;-91
2022/03/14 08:15:26;;;;;;;5.40;4.60;;;;;;;;;;5076243;28;20083;-90
2022/03/14 08:17:59;;;;;;;4.72;4.32;;;;;;;;;;5040813;28;20401;-94
2022/03/14 08:20:29;;;;;;;6.05;4.90;;;;;;;;;;5042278;28;20452;-93
2022/03/14 08:22:57;;;;;;;6.50;4.70;;;;;;;;;;5041999;28;20036;-91
2022/03/14 08:25:26;;;;;;;5.90;4.50;;;;;;;;;;5042181;28;20046;-91
2022/03/14 08:28:03;;;;;;;7.43;4.85;;;;;;;;;;5059208;28;20062;-93
2022/03/14 08:30:32;;;;;;;6.25;4.18;;;;;;;;;;5041836;28;20139;-94
2022/03/14 08:33:01;;;;;;;6.30;4.43;;;;;;;;;;5042292;28;20049;-94
2022/03/14 08:35:30;;;;;;;5.15;4.40;;;;;;;;;;5042053;28;20056;-93
2022/03/14 08:37:56;;;;;;;4.65;4.13;;;;;;;;;;5043201;28;20505;-94
2022/03/14 08:40:29;;;;;;;5.22;4.22;;;;;;;;;;5043757;28;20056;-90
2022/03/14 08:42:56;;;;;;;4.68;4.03;;;;;;;;;;5042614;28;20482;-91
2022/03/14 08:45:23;;;;;;;4.28;3.88;;;;;;;;;;5044117;28;20048;-95
2022/03/14 08:47:53;;;;;;;5.22;4.40;;;;;;;;;;5044813;28;20049;-94
2022/03/14 08:50:22;;;;;;;9.43;4.88;;;;;;;;;;5044694;28;20052;-91
2022/03/14 08:52:48;;;;;;;7.22;4.70;;;;;;;;;;5156713;22;20045;-94
2022/03/14 08:55:15;;;;;;;5.30;4.68;;;;;;;;;;5044536;28;20558;-94
2022/03/14 08:57:43;;;;;;;5.50;4.97;;;;;;;;;;5044657;28;20507;-95
2022/03/14 09:00:12;;;;;;;5.93;5.00;;;;;;;;;;5043995;28;20051;-95
2022/03/14 09:02:39;;;;;;;5.38;4.88;;;;;;;;;;5046035;28;20052;-96
2022/03/14 09:05:11;;;;;;;8.27;5.53;;;;;;;;;;5079554;28;20127;-94
2022/03/14 09:07:52;;;;;;;8.73;6.50;;;;;;;;;;5045946;28;20044;-95
2022/03/14 09:10:19;;;;;;;9.07;7.07;;;;;;;;;;5044328;28;20066;-96
2022/03/14 09:12:45;;;;;;;9.98;7.72;;;;;;;;;;5060810;28;20392;-95
2022/03/14 09:15:12;;;;;;;13.60;8.80;;;;;;;;;;5060694;28;20075;-95
2022/03/14 09:17:48;;;;;;;10.90;8.10;;;;;;;;;;5044481;28;20048;-93
2022/03/14 09:20:15;;;;;;;12.90;8.98;;;;;;;;;;5044480;28;20510;-94
2022/03/14 09:22:44;;;;;;;13.27;9.15;;;;;;;;;;5043893;28;20049;-93
2022/03/14 09:25:12;;;;;;;12.77;9.68;;;;;;;;;;5043008;28;20082;-95
2022/03/14 09:27:40;;;;;;;13.07;9.65;;;;;;;;;;5059671;28;20082;-95
2022/03/14 09:30:07;;;;;;;19.73;12.25;;;;;;;;;;5043026;28;20058;-96
2022/03/14 09:32:33;;;;;;;15.05;11.00;;;;;;;;;;5047265;28;20093;-94
2022/03/14 09:35:00;;;;;;;17.80;12.88;;;;;;;;;;5050177;28;20044;-92
2022/03/14 09:37:30;;;;;;;18.42;13.77;;;;;;;;;;5085272;28;20058;-96
2022/03/14 09:39:56;;;;;;;18.77;13.43;;;;;;;;;;5081791;28;20076;-95
2022/03/14 09:42:23;;;;;;;19.95;14.20;;;;;;;;;;5051780;28;20061;-93
2022/03/14 09:44:57;;;;;;;20.52;14.15;;;;;;;;;;5073300;28;20045;-92
2022/03/14 09:47:26;;;;;;;22.33;15.50;;;;;;;;;;5068296;28;20053;-92
2022/03/14 09:49:57;;;;;;;22.35;14.90;;;;;;;;;;5072423;28;20050;-94
2022/03/14 09:52:26;;;;;;;19.85;14.20;;;;;;;;;;5058425;28;20088;-90
2022/03/14 09:54:52;;;;;;;22.23;13.35;;;;;;;;;;5059406;28;20060;-92
2022/03/14 09:57:22;;;;;;;19.42;11.57;;;;;;;;;;5075130;28;20086;-90
2022/03/14 09:59:48;;;;;;;17.58;11.63;;;;;;;;;;5045503;28;20044;-90
2022/03/14 10:02:15;;;;;;;15.10;10.75;;;;;;;;;;5061680;28;20102;-92
2022/03/14 10:04:41;;;;;;;19.83;12.32;;;;;;;;;;5046124;28;20123;-93
2022/03/14 10:07:08;;;;;;;15.85;10.82;;;;;;;;;;5046208;28;20036;-93
2022/03/14 10:09:35;;;;;;;18.42;10.10;;;;;;;;;;5045754;28;20080;-91
2022/03/14 10:12:01;;;;;;;18.65;10.80;;;;;;;;;;5046586;28;20048;-91
2022/03/14 10:14:28;;;;;;;15.20;9.23;;;;;;;;;;5044296;28;20489;-91
2022/03/14 10:16:55;;;;;;;16.40;9.55;;;;;;;;;;5045170;28;20087;-93
2022/03/14 10:19:29;;;;;;;12.98;8.57;;;;;;;;;;5045150;28;20043;-92
2022/03/14 10:21:54;;;;;;;;;;;9.40;99.90;;;;;;5063376;28;20048;-91
2022/03/14 10:24:22;;;;;;;15.80;9.55;;;;;;;;;;5047731;28;19943;-88
2022/03/14 10:26:49;;;;;;;15.20;9.85;;;;;;;;;;5066193;28;20044;-89
2022/03/14 10:29:18;;;;;;;15.45;9.18;;;;;;;;;;5063120;28;20048;-91
2022/03/14 10:31:46;;;;;;;15.18;8.48;;;;;;;;;;5045970;28;20095;-92
2022/03/14 10:34:14;;;;;;;13.07;8.38;;;;;;;;;;5061590;28;20119;-93
2022/03/14 10:36:51;;;;;;;13.15;7.47;;;;;;;;;;5045670;28;20076;-91
2022/03/14 10:39:27;;;;;;;18.17;8.07;;;;;;;;;;5044804;28;20045;-92
2022/03/14 10:42:10;;;;;;;15.82;6.60;;;;;;;;;;5045058;28;20477;-91
2022/03/14 10:44:37;;;;;;;12.47;6.33;;;;;;;;;;5060017;28;20512;-92
2022/03/14 10:47:05;;;;;;;16.20;6.90;;;;;;;;;;5044062;28;20040;-89
2022/03/14 10:49:35;;;;;;;19.50;9.18;;;;;;;;;;5043379;28;20513;-88
2022/03/14 10:52:04;;;;;;;16.80;7.78;;;;;;;;;;5043166;28;20504;-89
2022/03/14 10:54:30;;;;;;;15.73;8.88;;;;;;;;;;5043138;28;20052;-90
2022/03/14 10:57:04;;;;;;;18.27;8.52;;;;;;;;;;5044240;28;20087;-91
2022/03/14 10:59:39;;;;;;;17.17;7.53;;;;;;;;;;5043896;28;20036;-92
2022/03/14 11:02:07;;;;;;;14.68;7.40;;;;;;;;;;5044527;28;20116;-91
2022/03/14 11:05:02;;;;;;;13.40;6.45;;;;;;;;;;5044643;28;20081;-92
2022/03/14 11:07:31;;;;;;;18.50;6.47;;;;;;;;;;5058937;28;20056;-92
2022/03/14 11:10:07;;;;;;;16.65;6.90;;;;;;;;;;5045044;28;20409;-88
2022/03/14 11:12:33;;;;;;;12.75;6.00;;;;;;;;;;5042574;28;20043;-92
2022/03/14 11:14:59;;;;;;;16.85;5.65;;;;;;;;;;5042801;28;20047;-91
2022/03/14 11:17:35;;;;;;;12.95;6.20;;;;;;;;;;5059069;28;20047;-91
2022/03/14 11:20:04;;;;;;;14.55;6.47;;;;;;;;;;5060102;28;20054;-89
2022/03/14 11:22:31;;;;;;;9.68;5.65;;;;;;;;;;5042491;28;20036;-90
2022/03/14 11:25:01;;;;;;;14.35;5.88;;;;;;;;;;5059530;28;20072;-88
2022/03/14 11:27:29;;;;;;;12.32;6.35;;;;;;;;;;5059320;28;20048;-88
2022/03/14 11:30:01;;;;;;;14.63;5.97;;;;;;;;;;5043072;28;20474;-90
2022/03/14 11:32:28;;;;;;;8.98;5.68;;;;;;;;;;5041705;28;20113;-88
2022/03/14 11:34:55;;;;;;;18.27;6.50;;;;;;;;;;5042968;28;20525;-90
2022/03/14 11:39:48;;;;;;;14.27;6.22;;;;;;;;;;5086427;22;20048;-91
2022/03/14 11:42:15;;;;;;;17.65;7.05;;;;;;;;;;5042412;28;20149;-93
2022/03/14 11:44:45;;;;;;;15.48;6.82;;;;;;;;;;5059037;28;20048;-93
2022/03/14 11:47:15;;;;;;;11.63;7.28;;;;;;;;;;5042586;28;20044;-92
2022/03/14 11:49:41;;;;;;;15.55;7.15;;;;;;;;;;5043522;28;20062;-91
2022/03/14 11:52:08;;;;;;;16.90;8.20;;;;;;;;;;5042987;28;20049;-93
2022/03/14 11:54:38;;;;;;;11.13;6.78;;;;;;;;;;5042605;28;20048;-93
2022/03/14 11:57:05;;;;;;;13.23;7.20;;;;;;;;;;5041582;28;20072;-93
2022/03/14 11:59:32;;;;;;;16.45;8.40;;;;;;;;;;5059842;28;20052;-94
2022/03/14 12:02:00;;;;;;;17.52;8.52;;;;;;;;;;5061810;28;20452;-92
2022/03/14 12:04:30;;;;;;;15.15;9.18;;;;;;;;;;5064013;28;20056;-91
2022/03/14 12:06:57;;;;;;;19.02;9.02;;;;;;;;;;5048037;28;20041;-88
2022/03/14 12:09:27;;;;;;;29.70;12.07;;;;;;;;;;5047113;28;20101;-92
2022/03/14 12:11:57;;;;;;;21.98;11.77;;;;;;;;;;5046600;28;20134;-93
2022/03/14 12:14:42;;;;;;;22.40;12.20;;;;;;;;;;5046101;28;20110;-94
2022/03/14 12:17:14;;;;;;;19.98;11.77;;;;;;;;;;5045759;28;20047;-94
2022/03/14 12:19:42;;;;;;;22.08;12.05;;;;;;;;;;5045718;28;20092;-93
2022/03/14 12:22:13;;;;;;;22.40;12.27;;;;;;;;;;5046719;28;20045;-93
2022/03/14 12:24:44;;;;;;;23.35;11.25;;;;;;;;;;5061596;28;20127;-95
2022/03/14 12:27:15;;;;;;;17.33;9.00;;;;;;;;;;5062314;28;20037;-95
2022/03/14 12:29:41;;;;;;;20.88;10.93;;;;;;;;;;5045826;28;20504;-96
2022/03/14 12:32:25;;;;;;;21.98;10.63;;;;;;;;;;5044274;28;20052;-94
2022/03/14 12:35:12;;;;;;;22.10;10.38;;;;;;;;;;5045112;28;20102;-95
2022/03/14 12:37:39;;;;;;;26.95;9.73;;;;;;;;;;5061544;28;20051;-95
2022/03/14 12:40:40;;;;;;;22.08;10.45;;;;;;;;;;5061604;28;20058;-94
2022/03/14 12:43:17;;;;;;;26.42;9.90;;;;;;;;;;5044277;28;20489;-95
2022/03/14 12:45:53;;;;;;;19.35;9.77;;;;;;;;;;5061488;28;20052;-95
2022/03/14 12:48:21;;;;;;;23.67;10.20;;;;;;;;;;5062142;28;20051;-95
2022/03/14 12:50:53;;;;;;;23.27;10.13;;;;;;;;;;5062626;28;20066;-95
2022/03/14 12:53:32;;;;;;;15.52;8.98;;;;;;;;;;5045950;28;20048;-95
2022/03/14 12:56:12;;;;;;;23.23;9.20;;;;;;;;;;5046045;28;20053;-95
2022/03/14 12:58:50;;;;;;;23.38;8.85;;;;;;;;;;5058080;28;20080;-93
2022/03/14 13:01:19;;;;;;;17.35;7.65;;;;;;;;;;5024749;28;20044;-93
2022/03/14 13:03:52;;;;;;;20.98;8.82;;;;;;;;;;5024458;28;20049;-91
2022/03/14 13:06:31;;;;;;;13.93;7.72;;;;;;;;;;5026043;28;20043;-94
2022/03/14 13:08:57;;;;;;;17.25;7.75;;;;;;;;;;5028326;28;20056;-94
2022/03/14 13:11:31;;;;;;;22.75;9.95;;;;;;;;;;5028290;28;20053;-94
2022/03/14 13:14:02;;;;;;;;;;;10.80;99.90;;;;;;5029302;28;20119;-93
2022/03/14 13:16:29;;;;;;;12.90;8.15;;;;;;;;;;5061696;28;20349;-93
2022/03/14 13:18:56;;;;;;;24.80;8.65;;;;;;;;;;5045257;28;20061;-94
2022/03/14 13:21:34;;;;;;;21.42;8.15;;;;;;;;;;5028918;28;20135;-93
2022/03/14 13:24:09;;;;;;;20.38;8.77;;;;;;;;;;5027960;28;20121;-94
2022/03/14 13:26:41;;;;;;;15.80;7.00;;;;;;;;;;5060604;28;20049;-94
2022/03/14 13:29:19;;;;;;;15.50;6.80;;;;;;;;;;5034257;28;20084;-94
2022/03/14 13:31:51;;;;;;;13.10;6.40;;;;;;;;;;5049259;28;20099;-93
2022/03/14 13:34:23;;;;;;;19.15;7.28;;;;;;;;;;5048702;28;20048;-95
2022/03/14 13:36:53;;;;;;;12.95;6.13;;;;;;;;;;5065640;28;20045;-94
2022/03/14 13:39:25;;;;;;;10.50;5.90;;;;;;;;;;5047751;28;20566;-95
2022/03/14 13:41:57;;;;;;;13.75;6.97;;;;;;;;;;5064342;28;20139;-91
2022/03/14 13:44:24;;;;;;;14.65;7.63;;;;;;;;;;5048527;28;20049;-94
2022/03/14 13:46:51;;;;;;;18.58;8.57;;;;;;;;;;5064118;28;20087;-95
2022/03/14 13:49:23;;;;;;;19.23;6.68;;;;;;;;;;5064056;28;20044;-95
2022/03/14 13:51:52;;;;;;;14.75;6.00;;;;;;;;;;5048037;28;20044;-93
2022/03/14 13:54:24;;;;;;;14.68;7.35;;;;;;;;;;5064499;28;20090;-94
2022/03/14 13:56:51;;;;;;;14.90;7.57;;;;;;;;;;5065211;28;20066;-95
2022/03/14 13:59:31;;;;;;;18.65;7.20;;;;;;;;;;5043155;28;20063;-94
2022/03/14 14:02:08;;;;;;;13.00;6.55;;;;;;;;;;5026749;28;20041;-94
2022/03/14 14:04:44;;;;;;;14.98;5.72;;;;;;;;;;5026659;28;20124;-94
2022/03/14 14:07:20;;;;;;;14.68;5.65;;;;;;;;;;5043635;28;20041;-92
2022/03/14 14:09:49;;;;;;;17.48;5.20;;;;;;;;;;5027246;28;20065;-95
2022/03/14 14:12:21;;;;;;;14.00;5.47;;;;;;;;;;5043783;28;20048;-92
2022/03/14 14:14:54;;;;;;;14.65;5.85;;;;;;;;;;5043653;28;20045;-94
2022/03/14 14:17:21;;;;;;;14.60;6.20;;;;;;;;;;5026402;28;20045;-95
2022/03/14 14:20:02;;;;;;;13.23;5.05;;;;;;;;;;5026565;28;20045;-93
2022/03/14 14:22:51;;;;;;;15.43;5.20;;;;;;;;;;5043166;28;20076;-93
2022/03/14 14:25:40;;;;;;;13.52;4.60;;;;;;;;;;5043298;28;20076;-95
2022/03/14 14:28:07;;;;;;;12.18;4.43;;;;;;;;;;5043209;28;20105;-95
2022/03/14 14:30:39;;;;;;;16.88;5.10;;;;;;;;;;5040399;28;20052;-94
2022/03/14 14:33:07;;;;;;;15.15;4.70;;;;;;;;;;5047834;28;20052;-94
2022/03/14 14:35:37;;;;;;;14.40;5.50;;;;;;;;;;5081663;28;20100;-94
2022/03/14 14:38:04;;;;;;;16.83;4.78;;;;;;;;;;5047331;28;20056;-95
2022/03/14 14:40:31;;;;;;;15.63;5.13;;;;;;;;;;5064242;28;20048;-94